Flight Track Log - Related Links

Times and Time Zones

All times are in EDT time to prevent confusion due to time zone crossing. See the SKW7367 flight status page for this flight to view local times or setup timezone preferences in your user account.

Time Position Orientation Groundspeed Altitude Reporting Facility
EDT Latitude Longitude Course Direction KTS MPH feet Rate Location/Type
Mon 04:06:37 PM 42.2169 -83.3603 12° North 139 160 1,100  Level Cleveland Center
Mon 04:07:45 PM 42.2706 -83.3453 12° North 214 246 4,800 2,839 Climbing Cleveland Center
Mon 04:08:10 PM 42.2844 -83.3386 20° North 210 242 5,500 2,903 Climbing Cleveland Center
Mon 04:08:47 PM 42.3394 -83.3239 11° North 265 305 7,800 3,000 Climbing Cleveland Center
Mon 04:09:12 PM 42.3536 -83.3197 12° North 243 280 8,600 3,443 Climbing Cleveland Center
Mon 04:09:48 PM 42.4139 -83.3089 North 267 307 11,300 3,290 Climbing Cleveland Center
Mon 04:10:14 PM 42.4444 -83.3103 358° North 275 316 12,000 1,159 Climbing Cleveland Center
Mon 04:11:16 PM 42.5275 -83.3189 356° North 299 344 13,000 1,016 Climbing Cleveland Center
Mon 04:12:18 PM 42.6114 -83.3275 356° North 302 348 14,100 968 Climbing Cleveland Center
Mon 04:13:20 PM 42.6972 -83.3375 355° North 309 356 15,000 435 Climbing Cleveland Center
Mon 04:14:22 PM 42.7828 -83.3492 354° North 310 357 15,000  Level Cleveland Center
Mon 04:15:24 PM 42.8667 -83.3594 355° North 304 350 15,000  Level Cleveland Center
Mon 04:16:26 PM 42.9664 -83.3664 357° North 300 345 15,000  Level Cleveland Center
Mon 04:17:28 PM 43.0489 -83.3672 360° North 296 341 15,000  Level Cleveland Center
Mon 04:18:30 PM 43.1147 -83.4264 327° Northwest 294 338 15,000  Level Cleveland Center
Mon 04:19:32 PM 43.1689 -83.5111 311° West 296 341 15,000  Level Cleveland Center
Mon 04:20:34 PM 43.2228 -83.5947 312° West 295 339 15,000  Level Cleveland Center
Mon 04:21:36 PM 43.2869 -83.6917 312° West 288 331 15,000  Level Cleveland Center
Mon 04:22:38 PM 43.3417 -83.7775 311° West 296 341 15,000  Level Cleveland Center
Mon 04:23:41 PM 43.3953 -83.8633 311° West 296 341 15,000  Level Cleveland Center
Mon 04:24:43 PM 43.4500 -83.9478 312° West 296 341 15,000  Level Cleveland Center
Mon 04:25:45 PM 43.5075 -84.0372 312° West 296 341 15,000  Level Cleveland Center
Mon 04:26:47 PM 43.5811 -84.0567 349° North 292 336 15,000  Level Cleveland Center
Mon 04:27:49 PM 43.6614 -84.0317 13° North 294 338 15,000  Level Cleveland Center
Mon 04:28:51 PM 43.7581 -84.0011 13° North 297 342 15,000  Level Cleveland Center
Mon 04:29:53 PM 43.8375 -83.9747 13° North 296 341 15,000  Level Cleveland Center
Mon 04:30:55 PM 43.9172 -83.9467 14° North 296 341 15,000  Level Cleveland Center
Mon 04:31:57 PM 43.9967 -83.9214 13° North 295 339 15,000  Level Cleveland Center
Mon 04:32:59 PM 44.0775 -83.8942 14° North 297 342 15,000  Level Cleveland Center
Mon 04:34:01 PM 44.1589 -83.8661 14° North 301 346 15,000  Level Cleveland Center
Mon 04:35:03 PM 44.2558 -83.8347 13° North 299 344 15,000  Level Cleveland Center
Mon 04:36:05 PM 44.3375 -83.8067 14° North 300 345 15,000 -336 Level Cleveland Center
Mon 04:37:08 PM 44.4178 -83.7797 13° North 299 344 14,300 -1,248 Descending Cleveland Center
Mon 04:38:10 PM 44.4944 -83.7561 12° North 290 334 12,400 -1,907 Descending Cleveland Center
Mon 04:39:39 PM 44.6175 -83.7106 15° North 282 325 9,500 -1,868 Descending Minneapolis Center
Mon 04:40:41 PM 44.6881 -83.6792 18° North 274 315 7,700 -1,694 Descending Minneapolis Center
Mon 04:41:43 PM 44.7628 -83.6469 17° North 264 304 6,000 -1,500 Descending Minneapolis Center
Mon 04:42:45 PM 44.8267 -83.6186 17° North 251 289 4,600 -1,113 Descending Minneapolis Center
Mon 04:43:47 PM 44.8894 -83.5917 17° North 227 261 3,700 -677 Descending Minneapolis Center
Mon 04:44:49 PM 44.9381 -83.5703 17° North 196 226 3,200 -581 Descending Minneapolis Center
Mon 04:45:51 PM 44.9853 -83.5611 North 163 188 2,500 -720 Descending Minneapolis Center
Mon 04:46:54 PM 45.0222 -83.5611 360° North 142 163 1,700 -816 Descending Minneapolis Center
Mon 04:47:56 PM 45.0586 -83.5611 360° North 127 146 800 -484 Descending Minneapolis Center
Mon 04:48:58 PM 45.0883 -83.5611 360° North 125 144 700 -97 Descending Minneapolis Center

Login

Don't have an account? Register now (free) for customized features, flight alerts, and more!